Mobile Regional Airport

Airport
ICAO code: 
KMOB
Summary
ICAO Region: 
NAM
Territory: 
Location: 
Mobile, Alabama,
Coordinates: 
Aerial View: 
30° 40' 51.91" N, 88° 14' 41.1" W
Airport WX: 
Cumulonimbus
Metar
Observation
KMOB 020927Z AUTO 00000KT 1SM BR CLR 08/08 A3016 RMK AO2 T00830083
Station
Mobile, Mobile Regional Airport
Date/Time
2021-12-02 09:27:00
Wind direction
Wind speed
00 kts
Lowest cloud amount
n/a
Temperature
8.3°C
Dew point
8.3°C
Humidity
100%
Weather condition
mist

Description

Civil/Military (USCG) airport serving the city of Mobile and south western Alabama, USA.

Climatology

Humid “subtropical” climate (Köppen climate classification Cfa) - characterized by hot, humid summers and cool winters. Significant amounts of precipitation occur in all seasons in most areas. Winter rainfall (and sometimes snowfall) is associated with large storms that the westerlies steer from west to east. Most summer rainfall occurs during thunderstorms and occasional tropical storms (hurricanes).

Runways

Designator Length Width Surface Rops
18/36 1330 46 ASP Yes/Yes
14/32 2597 46 ASP Yes/Yes
Airport map: 
Aerial View: 

SKYbrary Partners:

Safety knowledge contributed by: